sensor_id;sensor_type;location;lat;lon;timestamp;pressure;altitude;pressure_sealevel;temperature;humidity
49102;BME280;34913;47.520;19.186;2023-07-22T00:01:53;99444.94;;;17.68;100.00
49102;BME280;34913;47.520;19.186;2023-07-22T00:04:19;99457.53;;;17.68;100.00
49102;BME280;34913;47.520;19.186;2023-07-22T00:06:44;99453.38;;;17.65;100.00
49102;BME280;34913;47.520;19.186;2023-07-22T00:09:10;99447.44;;;17.55;100.00
49102;BME280;34913;47.520;19.186;2023-07-22T00:11:35;99443.47;;;17.51;100.00
49102;BME280;34913;47.520;19.186;2023-07-22T00:14:01;99427.25;;;17.44;100.00
49102;BME280;34913;47.520;19.186;2023-07-22T00:16:26;99422.72;;;17.45;100.00
49102;BME280;34913;47.520;19.186;2023-07-22T00:18:52;99432.38;;;17.54;100.00
49102;BME280;34913;47.520;19.186;2023-07-22T00:21:18;99437.47;;;17.64;100.00
49102;BME280;34913;47.520;19.186;2023-07-22T00:23:44;99427.34;;;17.66;100.00
49102;BME280;34913;47.520;19.186;2023-07-22T00:26:11;99437.06;;;17.67;100.00
49102;BME280;34913;47.520;19.186;2023-07-22T00:28:36;99440.34;;;17.62;100.00
49102;BME280;34913;47.520;19.186;2023-07-22T00:31:02;99433.47;;;17.59;100.00
49102;BME280;34913;47.520;19.186;2023-07-22T00:33:28;99436.97;;;17.60;100.00
49102;BME280;34913;47.520;19.186;2023-07-22T00:35:53;99435.50;;;17.57;100.00
49102;BME280;34913;47.520;19.186;2023-07-22T00:38:19;99430.13;;;17.57;100.00
49102;BME280;34913;47.520;19.186;2023-07-22T00:40:45;99435.31;;;17.59;100.00
49102;BME280;34913;47.520;19.186;2023-07-22T00:43:10;99432.00;;;17.57;100.00
49102;BME280;34913;47.520;19.186;2023-07-22T00:45:36;99427.00;;;17.54;100.00
49102;BME280;34913;47.520;19.186;2023-07-22T00:48:02;99435.31;;;17.59;100.00
49102;BME280;34913;47.520;19.186;2023-07-22T00:50:30;99447.56;;;17.62;100.00
49102;BME280;34913;47.520;19.186;2023-07-22T00:52:56;99446.16;;;17.66;100.00
49102;BME280;34913;47.520;19.186;2023-07-22T00:55:22;99446.59;;;17.69;100.00
49102;BME280;34913;47.520;19.186;2023-07-22T00:57:48;99450.63;;;17.73;100.00
49102;BME280;34913;47.520;19.186;2023-07-22T01:00:14;99460.34;;;17.74;100.00
49102;BME280;34913;47.520;19.186;2023-07-22T01:02:41;99461.34;;;17.73;100.00
49102;BME280;34913;47.520;19.186;2023-07-22T01:05:08;99475.88;;;17.79;100.00
49102;BME280;34913;47.520;19.186;2023-07-22T01:07:36;99474.47;;;17.83;100.00
49102;BME280;34913;47.520;19.186;2023-07-22T01:10:01;99469.69;;;17.78;100.00
49102;BME280;34913;47.520;19.186;2023-07-22T01:12:28;99490.78;;;17.81;100.00
49102;BME280;34913;47.520;19.186;2023-07-22T01:14:53;99502.75;;;17.79;100.00
49102;BME280;34913;47.520;19.186;2023-07-22T01:17:19;99490.50;;;17.76;100.00
49102;BME280;34913;47.520;19.186;2023-07-22T01:19:45;99481.16;;;17.72;100.00
49102;BME280;34913;47.520;19.186;2023-07-22T01:22:13;99484.34;;;17.68;100.00
49102;BME280;34913;47.520;19.186;2023-07-22T01:24:38;99486.41;;;17.66;100.00
49102;BME280;34913;47.520;19.186;2023-07-22T01:27:05;99490.41;;;17.70;100.00
49102;BME280;34913;47.520;19.186;2023-07-22T01:29:34;99493.09;;;17.70;100.00
49102;BME280;34913;47.520;19.186;2023-07-22T01:32:00;99495.84;;;17.62;100.00
49102;BME280;34913;47.520;19.186;2023-07-22T01:34:25;99504.06;;;17.60;100.00
49102;BME280;34913;47.520;19.186;2023-07-22T01:36:51;99501.13;;;17.55;100.00
49102;BME280;34913;47.520;19.186;2023-07-22T01:39:17;99510.34;;;17.52;100.00
49102;BME280;34913;47.520;19.186;2023-07-22T01:41:44;99505.91;;;17.45;100.00
49102;BME280;34913;47.520;19.186;2023-07-22T01:44:09;99502.38;;;17.44;100.00
49102;BME280;34913;47.520;19.186;2023-07-22T01:46:36;99508.78;;;17.43;100.00
49102;BME280;34913;47.520;19.186;2023-07-22T01:49:06;99515.63;;;17.46;100.00
49102;BME280;34913;47.520;19.186;2023-07-22T01:51:33;99512.28;;;17.44;100.00
49102;BME280;34913;47.520;19.186;2023-07-22T01:53:59;99517.84;;;17.42;100.00
49102;BME280;34913;47.520;19.186;2023-07-22T01:56:24;99525.25;;;17.40;100.00
49102;BME280;34913;47.520;19.186;2023-07-22T01:58:50;99530.41;;;17.42;100.00
49102;BME280;34913;47.520;19.186;2023-07-22T02:01:15;99519.50;;;17.43;100.00
49102;BME280;34913;47.520;19.186;2023-07-22T02:03:44;99532.91;;;17.43;100.00
49102;BME280;34913;47.520;19.186;2023-07-22T02:06:10;99528.28;;;17.37;100.00
49102;BME280;34913;47.520;19.186;2023-07-22T02:08:36;99534.19;;;17.33;100.00
49102;BME280;34913;47.520;19.186;2023-07-22T02:11:06;99533.56;;;17.30;100.00
49102;BME280;34913;47.520;19.186;2023-07-22T02:13:34;99529.56;;;17.26;100.00
49102;BME280;34913;47.520;19.186;2023-07-22T02:16:00;99529.09;;;17.23;100.00
49102;BME280;34913;47.520;19.186;2023-07-22T02:18:26;99532.75;;;17.22;100.00
49102;BME280;34913;47.520;19.186;2023-07-22T02:20:53;99545.00;;;17.24;100.00
49102;BME280;34913;47.520;19.186;2023-07-22T02:23:18;99545.28;;;17.29;100.00
49102;BME280;34913;47.520;19.186;2023-07-22T02:25:44;99554.81;;;17.32;100.00
49102;BME280;34913;47.520;19.186;2023-07-22T02:28:10;99554.81;;;17.32;100.00
49102;BME280;34913;47.520;19.186;2023-07-22T02:30:38;99560.53;;;17.29;100.00
49102;BME280;34913;47.520;19.186;2023-07-22T02:33:05;99572.47;;;17.26;100.00
49102;BME280;34913;47.520;19.186;2023-07-22T02:35:31;99569.78;;;17.26;100.00
49102;BME280;34913;47.520;19.186;2023-07-22T02:37:56;99556.91;;;17.22;100.00
49102;BME280;34913;47.520;19.186;2023-07-22T02:40:22;99556.38;;;17.26;100.00
49102;BME280;34913;47.520;19.186;2023-07-22T02:42:47;99568.25;;;17.32;100.00
49102;BME280;34913;47.520;19.186;2023-07-22T02:45:12;99568.06;;;17.34;100.00
49102;BME280;34913;47.520;19.186;2023-07-22T02:47:38;99564.91;;;17.30;100.00
49102;BME280;34913;47.520;19.186;2023-07-22T02:50:07;99568.88;;;17.34;100.00
49102;BME280;34913;47.520;19.186;2023-07-22T02:52:33;99579.63;;;17.34;100.00
49102;BME280;34913;47.520;19.186;2023-07-22T02:55:13;99578.59;;;17.35;100.00
49102;BME280;34913;47.520;19.186;2023-07-22T02:57:40;99577.47;;;17.29;100.00
49102;BME280;34913;47.520;19.186;2023-07-22T03:00:06;99568.00;;;17.19;100.00
49102;BME280;34913;47.520;19.186;2023-07-22T03:02:39;99574.75;;;17.15;100.00
49102;BME280;34913;47.520;19.186;2023-07-22T03:05:05;99577.25;;;17.16;100.00
49102;BME280;34913;47.520;19.186;2023-07-22T03:07:40;99594.34;;;17.15;100.00
49102;BME280;34913;47.520;19.186;2023-07-22T03:10:06;99599.72;;;17.15;100.00
49102;BME280;34913;47.520;19.186;2023-07-22T03:12:32;99604.91;;;17.17;100.00
49102;BME280;34913;47.520;19.186;2023-07-22T03:14:58;99603.22;;;17.16;100.00
49102;BME280;34913;47.520;19.186;2023-07-22T03:17:24;99609.91;;;17.20;100.00
49102;BME280;34913;47.520;19.186;2023-07-22T03:19:49;99611.09;;;17.17;100.00
49102;BME280;34913;47.520;19.186;2023-07-22T03:22:16;99602.22;;;17.17;100.00
49102;BME280;34913;47.520;19.186;2023-07-22T03:24:43;99599.03;;;17.13;100.00
49102;BME280;34913;47.520;19.186;2023-07-22T03:27:08;99583.13;;;17.12;100.00
49102;BME280;34913;47.520;19.186;2023-07-22T03:29:34;99602.16;;;17.25;100.00
49102;BME280;34913;47.520;19.186;2023-07-22T03:31:59;99595.91;;;17.33;100.00
49102;BME280;34913;47.520;19.186;2023-07-22T03:34:30;99603.03;;;17.40;100.00
49102;BME280;34913;47.520;19.186;2023-07-22T03:36:56;99593.34;;;17.39;100.00
49102;BME280;34913;47.520;19.186;2023-07-22T03:39:21;99593.78;;;17.43;100.00
49102;BME280;34913;47.520;19.186;2023-07-22T03:41:47;99601.38;;;17.39;100.00
49102;BME280;34913;47.520;19.186;2023-07-22T03:44:12;99586.94;;;17.40;100.00
49102;BME280;34913;47.520;19.186;2023-07-22T03:46:38;99595.00;;;17.40;100.00
49102;BME280;34913;47.520;19.186;2023-07-22T03:49:04;99603.69;;;17.42;100.00
49102;BME280;34913;47.520;19.186;2023-07-22T03:51:29;99598.63;;;17.47;100.00
49102;BME280;34913;47.520;19.186;2023-07-22T03:53:55;99611.84;;;17.49;100.00
49102;BME280;34913;47.520;19.186;2023-07-22T03:56:21;99608.81;;;17.52;100.00
49102;BME280;34913;47.520;19.186;2023-07-22T03:58:48;99599.91;;;17.51;100.00
49102;BME280;34913;47.520;19.186;2023-07-22T04:01:14;99610.13;;;17.56;100.00
49102;BME280;34913;47.520;19.186;2023-07-22T04:03:39;99611.41;;;17.60;100.00
49102;BME280;34913;47.520;19.186;2023-07-22T04:06:05;99615.59;;;17.63;100.00
49102;BME280;34913;47.520;19.186;2023-07-22T04:08:30;99605.31;;;17.66;100.00
49102;BME280;34913;47.520;19.186;2023-07-22T04:10:57;99618.88;;;17.73;100.00
49102;BME280;34913;47.520;19.186;2023-07-22T04:13:24;99614.56;;;17.87;100.00
49102;BME280;34913;47.520;19.186;2023-07-22T04:15:50;99609.88;;;18.03;100.00
49102;BME280;34913;47.520;19.186;2023-07-22T04:18:16;99607.53;;;18.15;100.00
49102;BME280;34913;47.520;19.186;2023-07-22T04:20:42;99608.91;;;18.40;100.00
49102;BME280;34913;47.520;19.186;2023-07-22T04:23:08;99609.09;;;18.68;100.00
49102;BME280;34913;47.520;19.186;2023-07-22T04:25:41;99609.53;;;18.87;100.00
49102;BME280;34913;47.520;19.186;2023-07-22T04:28:07;99610.09;;;18.82;100.00
49102;BME280;34913;47.520;19.186;2023-07-22T04:30:33;99603.78;;;19.11;100.00
49102;BME280;34913;47.520;19.186;2023-07-22T04:32:59;99592.13;;;19.25;100.00
49102;BME280;34913;47.520;19.186;2023-07-22T04:35:24;99599.13;;;19.63;100.00
49102;BME280;34913;47.520;19.186;2023-07-22T04:37:50;99606.63;;;19.95;99.07
49102;BME280;34913;47.520;19.186;2023-07-22T04:40:15;99607.91;;;19.99;94.46
49102;BME280;34913;47.520;19.186;2023-07-22T04:42:42;99603.16;;;20.43;95.41
49102;BME280;34913;47.520;19.186;2023-07-22T04:45:09;99610.16;;;20.37;89.76
49102;BME280;34913;47.520;19.186;2023-07-22T04:47:38;99618.78;;;21.08;90.63
49102;BME280;34913;47.520;19.186;2023-07-22T04:50:07;99614.53;;;21.67;86.08
49102;BME280;34913;47.520;19.186;2023-07-22T04:52:36;99614.72;;;22.05;83.23
49102;BME280;34913;47.520;19.186;2023-07-22T04:55:02;99616.38;;;21.93;79.71
49102;BME280;34913;47.520;19.186;2023-07-22T04:57:40;99624.47;;;22.26;81.80
49102;BME280;34913;47.520;19.186;2023-07-22T05:00:07;99615.72;;;22.37;82.36
49102;BME280;34913;47.520;19.186;2023-07-22T05:02:39;99629.94;;;22.71;78.10
49102;BME280;34913;47.520;19.186;2023-07-22T05:05:05;99638.69;;;22.66;76.71
49102;BME280;34913;47.520;19.186;2023-07-22T05:07:30;99636.81;;;22.67;76.75
49102;BME280;34913;47.520;19.186;2023-07-22T05:09:55;99632.41;;;22.86;76.89
49102;BME280;34913;47.520;19.186;2023-07-22T05:12:21;99629.59;;;23.05;74.31
49102;BME280;34913;47.520;19.186;2023-07-22T05:14:46;99634.50;;;23.22;75.44
49102;BME280;34913;47.520;19.186;2023-07-22T05:17:12;99639.78;;;23.10;76.27
49102;BME280;34913;47.520;19.186;2023-07-22T05:19:37;99636.44;;;23.46;73.43
49102;BME280;34913;47.520;19.186;2023-07-22T05:22:03;99637.53;;;23.95;71.02
49102;BME280;34913;47.520;19.186;2023-07-22T05:24:28;99639.16;;;24.21;69.58
49102;BME280;34913;47.520;19.186;2023-07-22T05:26:54;99641.63;;;24.04;70.01
49102;BME280;34913;47.520;19.186;2023-07-22T05:29:20;99647.72;;;24.43;69.39
49102;BME280;34913;47.520;19.186;2023-07-22T05:31:45;99647.34;;;24.14;70.54
49102;BME280;34913;47.520;19.186;2023-07-22T05:34:11;99652.72;;;24.21;69.32
49102;BME280;34913;47.520;19.186;2023-07-22T05:36:37;99652.06;;;24.26;69.76
49102;BME280;34913;47.520;19.186;2023-07-22T05:39:03;99654.66;;;24.57;68.73
49102;BME280;34913;47.520;19.186;2023-07-22T05:41:28;99656.28;;;24.40;69.18
49102;BME280;34913;47.520;19.186;2023-07-22T05:43:54;99650.91;;;24.58;69.94
49102;BME280;34913;47.520;19.186;2023-07-22T05:46:19;99658.44;;;24.74;68.31
49102;BME280;34913;47.520;19.186;2023-07-22T05:48:44;99664.50;;;24.88;67.88
49102;BME280;34913;47.520;19.186;2023-07-22T05:51:10;99659.00;;;24.95;67.89
49102;BME280;34913;47.520;19.186;2023-07-22T05:53:35;99656.19;;;25.01;65.01
49102;BME280;34913;47.520;19.186;2023-07-22T05:56:01;99656.81;;;25.03;64.53
49102;BME280;34913;47.520;19.186;2023-07-22T05:58:26;99661.72;;;24.95;65.57
49102;BME280;34913;47.520;19.186;2023-07-22T06:00:53;99668.56;;;25.16;64.92
49102;BME280;34913;47.520;19.186;2023-07-22T06:03:19;99669.31;;;25.23;62.48
49102;BME280;34913;47.520;19.186;2023-07-22T06:05:46;99671.09;;;24.81;63.49
49102;BME280;34913;47.520;19.186;2023-07-22T06:08:11;99673.19;;;24.97;64.28
49102;BME280;34913;47.520;19.186;2023-07-22T06:10:37;99679.00;;;24.20;66.20
49102;BME280;34913;47.520;19.186;2023-07-22T06:13:04;99668.44;;;24.12;67.13
49102;BME280;34913;47.520;19.186;2023-07-22T06:15:29;99675.53;;;23.88;69.14
49102;BME280;34913;47.520;19.186;2023-07-22T06:17:55;99680.50;;;24.16;68.00
49102;BME280;34913;47.520;19.186;2023-07-22T06:20:20;99678.56;;;23.99;66.41
49102;BME280;34913;47.520;19.186;2023-07-22T06:22:46;99670.56;;;24.35;66.74
49102;BME280;34913;47.520;19.186;2023-07-22T06:25:11;99671.00;;;24.69;65.60
49102;BME280;34913;47.520;19.186;2023-07-22T06:27:37;99682.16;;;24.61;65.18
49102;BME280;34913;47.520;19.186;2023-07-22T06:30:03;99682.31;;;24.47;64.79
49102;BME280;34913;47.520;19.186;2023-07-22T06:32:29;99683.28;;;24.71;64.33
49102;BME280;34913;47.520;19.186;2023-07-22T06:34:58;99678.53;;;24.85;62.91
49102;BME280;34913;47.520;19.186;2023-07-22T06:37:23;99681.34;;;25.15;62.02
49102;BME280;34913;47.520;19.186;2023-07-22T06:39:50;99684.53;;;25.12;62.40
49102;BME280;34913;47.520;19.186;2023-07-22T06:42:16;99680.03;;;25.48;60.81
49102;BME280;34913;47.520;19.186;2023-07-22T06:44:42;99682.50;;;25.19;61.33
49102;BME280;34913;47.520;19.186;2023-07-22T06:47:08;99682.63;;;25.13;62.02
49102;BME280;34913;47.520;19.186;2023-07-22T06:49:33;99680.69;;;25.31;62.89
49102;BME280;34913;47.520;19.186;2023-07-22T06:51:58;99690.00;;;25.66;61.33
49102;BME280;34913;47.520;19.186;2023-07-22T06:54:24;99683.34;;;25.50;62.36
49102;BME280;34913;47.520;19.186;2023-07-22T06:56:49;99685.63;;;25.23;61.83
49102;BME280;34913;47.520;19.186;2023-07-22T06:59:15;99688.91;;;25.55;60.93
49102;BME280;34913;47.520;19.186;2023-07-22T07:01:40;99693.78;;;25.65;61.58
49102;BME280;34913;47.520;19.186;2023-07-22T07:04:06;99687.44;;;25.41;62.52
49102;BME280;34913;47.520;19.186;2023-07-22T07:06:32;99691.97;;;25.77;60.66
49102;BME280;34913;47.520;19.186;2023-07-22T07:08:59;99692.22;;;25.99;60.53
49102;BME280;34913;47.520;19.186;2023-07-22T07:11:25;99702.84;;;25.88;60.91
49102;BME280;34913;47.520;19.186;2023-07-22T07:13:51;99697.56;;;25.64;61.12
49102;BME280;34913;47.520;19.186;2023-07-22T07:16:23;99713.03;;;26.05;58.05
49102;BME280;34913;47.520;19.186;2023-07-22T07:18:50;99704.13;;;26.39;58.08
49102;BME280;34913;47.520;19.186;2023-07-22T07:21:16;99710.22;;;26.70;56.76
49102;BME280;34913;47.520;19.186;2023-07-22T07:23:42;99706.56;;;26.76;56.35
49102;BME280;34913;47.520;19.186;2023-07-22T07:26:07;99707.47;;;26.93;57.07
49102;BME280;34913;47.520;19.186;2023-07-22T07:28:32;99706.38;;;27.18;55.20
49102;BME280;34913;47.520;19.186;2023-07-22T07:30:58;99707.22;;;27.18;55.26
49102;BME280;34913;47.520;19.186;2023-07-22T07:33:23;99708.75;;;27.14;55.86
49102;BME280;34913;47.520;19.186;2023-07-22T07:35:49;99706.41;;;26.94;56.44
49102;BME280;34913;47.520;19.186;2023-07-22T07:38:14;99713.16;;;27.04;56.51
49102;BME280;34913;47.520;19.186;2023-07-22T07:40:40;99708.66;;;27.38;53.61
49102;BME280;34913;47.520;19.186;2023-07-22T07:43:05;99718.19;;;27.52;52.95
49102;BME280;34913;47.520;19.186;2023-07-22T07:45:30;99717.13;;;27.24;55.19
49102;BME280;34913;47.520;19.186;2023-07-22T07:47:56;99720.88;;;26.83;57.37
49102;BME280;34913;47.520;19.186;2023-07-22T07:50:22;99727.72;;;26.97;56.60
49102;BME280;34913;47.520;19.186;2023-07-22T07:52:47;99732.56;;;27.19;55.53
49102;BME280;34913;47.520;19.186;2023-07-22T07:55:13;99731.44;;;27.32;55.29
49102;BME280;34913;47.520;19.186;2023-07-22T07:57:38;99744.63;;;27.51;55.13
49102;BME280;34913;47.520;19.186;2023-07-22T08:00:04;99743.97;;;27.73;54.70
49102;BME280;34913;47.520;19.186;2023-07-22T08:02:30;99760.94;;;27.92;54.12
49102;BME280;34913;47.520;19.186;2023-07-22T08:04:55;99757.16;;;28.09;51.87
49102;BME280;34913;47.520;19.186;2023-07-22T08:07:21;99753.59;;;28.09;53.66
49102;BME280;34913;47.520;19.186;2023-07-22T08:09:47;99762.59;;;27.93;54.17
49102;BME280;34913;47.520;19.186;2023-07-22T08:12:18;99772.84;;;27.86;53.63
49102;BME280;34913;47.520;19.186;2023-07-22T08:14:43;99769.38;;;27.90;53.92
49102;BME280;34913;47.520;19.186;2023-07-22T08:17:09;99772.84;;;28.02;52.47
49102;BME280;34913;47.520;19.186;2023-07-22T08:19:34;99773.63;;;28.15;53.50
49102;BME280;34913;47.520;19.186;2023-07-22T08:22:00;99777.09;;;28.27;51.63
49102;BME280;34913;47.520;19.186;2023-07-22T08:24:25;99777.22;;;28.32;52.06
49102;BME280;34913;47.520;19.186;2023-07-22T08:26:51;99782.41;;;28.50;51.34
49102;BME280;34913;47.520;19.186;2023-07-22T08:29:16;99784.66;;;28.53;50.62
49102;BME280;34913;47.520;19.186;2023-07-22T08:31:42;99796.41;;;28.54;50.50
49102;BME280;34913;47.520;19.186;2023-07-22T08:34:07;99792.75;;;28.31;51.14
49102;BME280;34913;47.520;19.186;2023-07-22T08:36:32;99795.50;;;28.31;49.09
49102;BME280;34913;47.520;19.186;2023-07-22T08:38:58;99797.97;;;28.50;47.46
49102;BME280;34913;47.520;19.186;2023-07-22T08:41:24;99795.06;;;28.56;49.14
49102;BME280;34913;47.520;19.186;2023-07-22T08:43:51;99792.31;;;28.73;49.55
49102;BME280;34913;47.520;19.186;2023-07-22T08:46:19;99798.28;;;28.70;47.83
49102;BME280;34913;47.520;19.186;2023-07-22T08:48:46;99807.13;;;28.77;49.48
49102;BME280;34913;47.520;19.186;2023-07-22T08:51:16;99802.16;;;28.91;46.34
49102;BME280;34913;47.520;19.186;2023-07-22T08:53:43;99792.13;;;28.80;50.78
49102;BME280;34913;47.520;19.186;2023-07-22T08:56:09;99801.41;;;28.96;48.94
49102;BME280;34913;47.520;19.186;2023-07-22T08:58:35;99801.94;;;29.14;46.48
49102;BME280;34913;47.520;19.186;2023-07-22T09:01:02;99808.09;;;29.05;46.39
49102;BME280;34913;47.520;19.186;2023-07-22T09:03:28;99810.34;;;28.91;48.22
49102;BME280;34913;47.520;19.186;2023-07-22T09:05:54;99822.34;;;28.90;48.91
49102;BME280;34913;47.520;19.186;2023-07-22T09:08:19;99828.72;;;28.96;46.67
49102;BME280;34913;47.520;19.186;2023-07-22T09:10:46;99824.03;;;28.57;47.41
49102;BME280;34913;47.520;19.186;2023-07-22T09:13:13;99828.09;;;28.55;48.63
49102;BME280;34913;47.520;19.186;2023-07-22T09:15:40;99828.25;;;28.65;47.82
49102;BME280;34913;47.520;19.186;2023-07-22T09:18:06;99841.22;;;28.58;45.77
49102;BME280;34913;47.520;19.186;2023-07-22T09:20:32;99839.91;;;28.77;46.46
49102;BME280;34913;47.520;19.186;2023-07-22T09:22:59;99844.72;;;28.70;46.92
49102;BME280;34913;47.520;19.186;2023-07-22T09:25:26;99842.47;;;28.84;45.64
49102;BME280;34913;47.520;19.186;2023-07-22T09:27:54;99834.44;;;28.77;45.58
49102;BME280;34913;47.520;19.186;2023-07-22T09:30:26;99841.41;;;28.68;48.05
49102;BME280;34913;47.520;19.186;2023-07-22T09:32:54;99839.09;;;28.60;44.81
49102;BME280;34913;47.520;19.186;2023-07-22T09:35:20;99838.34;;;28.64;44.14
49102;BME280;34913;47.520;19.186;2023-07-22T09:37:46;99846.13;;;28.73;45.62
49102;BME280;34913;47.520;19.186;2023-07-22T09:40:23;99838.69;;;28.68;44.74
49102;BME280;34913;47.520;19.186;2023-07-22T09:42:54;99832.53;;;28.78;42.96
49102;BME280;34913;47.520;19.186;2023-07-22T09:45:22;99833.88;;;28.42;42.54
49102;BME280;34913;47.520;19.186;2023-07-22T09:47:48;99835.94;;;28.51;43.82
49102;BME280;34913;47.520;19.186;2023-07-22T09:50:20;99830.00;;;28.38;45.51
49102;BME280;34913;47.520;19.186;2023-07-22T09:52:52;99836.94;;;28.62;43.61
49102;BME280;34913;47.520;19.186;2023-07-22T09:55:23;99831.31;;;28.52;43.94
49102;BME280;34913;47.520;19.186;2023-07-22T09:57:51;99828.81;;;28.50;42.41
49102;BME280;34913;47.520;19.186;2023-07-22T10:00:18;99818.16;;;28.32;44.13
49102;BME280;34913;47.520;19.186;2023-07-22T10:02:48;99817.84;;;28.17;41.88
49102;BME280;34913;47.520;19.186;2023-07-22T10:05:20;99814.59;;;28.31;41.33
49102;BME280;34913;47.520;19.186;2023-07-22T10:07:49;99820.63;;;28.33;41.93
49102;BME280;34913;47.520;19.186;2023-07-22T10:10:27;99819.22;;;28.31;42.21
49102;BME280;34913;47.520;19.186;2023-07-22T10:12:55;99815.22;;;28.22;42.01
49102;BME280;34913;47.520;19.186;2023-07-22T10:15:22;99829.38;;;28.35;43.02
49102;BME280;34913;47.520;19.186;2023-07-22T10:17:49;99824.53;;;28.38;43.44
49102;BME280;34913;47.520;19.186;2023-07-22T10:20:16;99829.00;;;28.60;42.96
49102;BME280;34913;47.520;19.186;2023-07-22T10:22:46;99832.31;;;28.62;42.92
49102;BME280;34913;47.520;19.186;2023-07-22T10:25:15;99826.16;;;28.72;41.74
49102;BME280;34913;47.520;19.186;2023-07-22T10:27:41;99829.56;;;28.79;40.38
49102;BME280;34913;47.520;19.186;2023-07-22T10:30:11;99831.72;;;28.77;43.04
49102;BME280;34913;47.520;19.186;2023-07-22T10:32:45;99833.94;;;28.80;42.20
49102;BME280;34913;47.520;19.186;2023-07-22T10:35:16;99837.78;;;28.62;41.40
49102;BME280;34913;47.520;19.186;2023-07-22T10:37:46;99841.16;;;28.53;42.15
49102;BME280;34913;47.520;19.186;2023-07-22T10:43:04;99835.94;;;28.51;42.01
49102;BME280;34913;47.520;19.186;2023-07-22T10:45:35;99833.19;;;28.51;42.27
49102;BME280;34913;47.520;19.186;2023-07-22T10:48:12;99829.66;;;28.51;40.99
49102;BME280;34913;47.520;19.186;2023-07-22T10:50:46;99831.63;;;28.72;40.46
49102;BME280;34913;47.520;19.186;2023-07-22T10:53:28;99820.19;;;28.75;39.89
49102;BME280;34913;47.520;19.186;2023-07-22T10:56:14;99822.09;;;28.75;40.37
49102;BME280;34913;47.520;19.186;2023-07-22T11:12:08;99814.28;;;29.17;38.57
49102;BME280;34913;47.520;19.186;2023-07-22T11:14:52;99815.28;;;29.11;38.61
49102;BME280;34913;47.520;19.186;2023-07-22T11:17:27;99816.53;;;29.03;37.45
49102;BME280;34913;47.520;19.186;2023-07-22T11:19:55;99806.13;;;29.00;36.98
49102;BME280;34913;47.520;19.186;2023-07-22T11:22:20;99809.88;;;28.77;37.68
49102;BME280;34913;47.520;19.186;2023-07-22T11:24:46;99798.94;;;28.77;38.32
49102;BME280;34913;47.520;19.186;2023-07-22T11:27:12;99796.81;;;28.62;39.78
49102;BME280;34913;47.520;19.186;2023-07-22T11:29:38;99806.56;;;28.58;39.48
49102;BME280;34913;47.520;19.186;2023-07-22T11:32:04;99797.78;;;28.73;38.84
49102;BME280;34913;47.520;19.186;2023-07-22T11:34:29;99805.28;;;28.83;38.11
49102;BME280;34913;47.520;19.186;2023-07-22T11:36:56;99796.69;;;28.91;40.99
49102;BME280;34913;47.520;19.186;2023-07-22T11:39:24;99792.47;;;29.00;37.91
49102;BME280;34913;47.520;19.186;2023-07-22T11:41:50;99796.47;;;29.14;37.33
49102;BME280;34913;47.520;19.186;2023-07-22T11:44:20;99792.59;;;29.10;36.33
49102;BME280;34913;47.520;19.186;2023-07-22T11:46:59;99804.88;;;29.08;35.95
49102;BME280;34913;47.520;19.186;2023-07-22T11:49:47;99799.19;;;28.92;35.56
49102;BME280;34913;47.520;19.186;2023-07-22T11:52:17;99801.06;;;29.09;36.01
49102;BME280;34913;47.520;19.186;2023-07-22T11:54:45;99793.78;;;28.98;36.06
49102;BME280;34913;47.520;19.186;2023-07-22T11:57:14;99795.81;;;28.69;36.41
49102;BME280;34913;47.520;19.186;2023-07-22T11:59:46;99799.66;;;28.89;37.71
49102;BME280;34913;47.520;19.186;2023-07-22T12:02:16;99779.63;;;29.01;35.01
49102;BME280;34913;47.520;19.186;2023-07-22T12:04:57;99781.03;;;29.03;38.14
49102;BME280;34913;47.520;19.186;2023-07-22T12:07:30;99780.84;;;29.10;36.68
49102;BME280;34913;47.520;19.186;2023-07-22T12:09:57;99778.03;;;29.27;35.65
49102;BME280;34913;47.520;19.186;2023-07-22T12:12:36;99788.84;;;29.16;34.90
49102;BME280;34913;47.520;19.186;2023-07-22T12:15:17;99788.78;;;29.11;33.83
49102;BME280;34913;47.520;19.186;2023-07-22T12:20:17;99791.13;;;29.03;36.20
49102;BME280;34913;47.520;19.186;2023-07-22T12:22:43;99777.75;;;28.84;37.39
49102;BME280;34913;47.520;19.186;2023-07-22T12:25:08;99782.28;;;28.96;35.05
49102;BME280;34913;47.520;19.186;2023-07-22T12:27:34;99782.53;;;28.94;34.14
49102;BME280;34913;47.520;19.186;2023-07-22T12:29:59;99777.06;;;28.94;36.99
49102;BME280;34913;47.520;19.186;2023-07-22T12:32:25;99773.19;;;28.90;36.29
49102;BME280;34913;47.520;19.186;2023-07-22T12:34:50;99767.22;;;28.93;35.84
49102;BME280;34913;47.520;19.186;2023-07-22T12:37:16;99776.66;;;28.85;35.63
49102;BME280;34913;47.520;19.186;2023-07-22T12:39:41;99772.84;;;28.86;37.40
49102;BME280;34913;47.520;19.186;2023-07-22T12:42:06;99761.69;;;28.71;36.37
49102;BME280;34913;47.520;19.186;2023-07-22T12:44:32;99769.59;;;28.68;34.88
49102;BME280;34913;47.520;19.186;2023-07-22T12:46:57;99768.66;;;28.62;36.24
49102;BME280;34913;47.520;19.186;2023-07-22T12:49:23;99766.03;;;28.50;34.30
49102;BME280;34913;47.520;19.186;2023-07-22T12:51:48;99766.69;;;28.57;34.39
49102;BME280;34913;47.520;19.186;2023-07-22T12:54:14;99765.03;;;28.56;35.00
49102;BME280;34913;47.520;19.186;2023-07-22T12:56:39;99762.38;;;28.61;36.05
49102;BME280;34913;47.520;19.186;2023-07-22T12:59:05;99759.66;;;28.61;34.23
49102;BME280;34913;47.520;19.186;2023-07-22T13:01:30;99759.66;;;28.61;36.21
49102;BME280;34913;47.520;19.186;2023-07-22T13:03:55;99766.00;;;28.67;35.76